Time;durP1;ratioP1;P1;durP2;ratioP2;P2;SDS_P1;SDS_P2;PMS_P1;PMS_P2;Temp;Humidity;BMP_temperature;BMP_pressure;BME280_temperature;BME280_humidity;BME280_pressure;Samples;Min_cycle;Max_cycle;Signal;HPM_P1;HPM_P2
2024/01/06 00:00:49;;;;;;;20.83;12.38;;;;;;;;;;4979656;28;20125;-69
2024/01/06 00:03:14;;;;;;;20.13;11.18;;;;;;;;;;4979686;28;20073;-72
2024/01/06 00:05:40;;;;;;;20.45;12.57;;;;;;;;;;4978431;28;20046;-72
2024/01/06 00:11:52;;;;;;;19.05;11.63;;;;;;;;;;4975492;28;20096;-70
2024/01/06 00:14:17;;;;;;;19.80;12.02;;;;;;;;;;4979193;28;20050;-73
2024/01/06 00:16:43;;;;;;;19.20;11.40;;;;;;;;;;4978439;28;20523;-73
2024/01/06 00:19:08;;;;;;;20.75;12.05;;;;;;;;;;4977956;28;20585;-72
2024/01/06 00:21:33;;;;;;;21.17;11.70;;;;;;;;;;4977329;28;20077;-71
2024/01/06 00:23:59;;;;;;;19.05;12.25;;;;;;;;;;4978853;28;20050;-71
2024/01/06 00:26:25;;;;;;;20.27;12.55;;;;;;;;;;4976923;28;20046;-69
2024/01/06 00:28:50;;;;;;;21.60;11.93;;;;;;;;;;4978048;28;20506;-70
2024/01/06 00:31:19;;;;;;;21.13;12.15;;;;;;;;;;4991238;28;20404;-69
2024/01/06 00:33:45;;;;;;;16.70;10.63;;;;;;;;;;4978504;28;20061;-70
2024/01/06 00:36:10;;;;;;;20.58;10.95;;;;;;;;;;4978793;28;20097;-73
2024/01/06 00:38:35;;;;;;;16.90;10.40;;;;;;;;;;4978171;28;20054;-69
2024/01/06 00:41:01;;;;;;;18.58;10.93;;;;;;;;;;4978656;28;20046;-73
2024/01/06 00:43:26;;;;;;;28.75;11.85;;;;;;;;;;4976987;28;20129;-73
2024/01/06 00:45:52;;;;;;;20.35;12.20;;;;;;;;;;4978641;28;20574;-70
2024/01/06 00:48:17;;;;;;;22.08;12.32;;;;;;;;;;4978348;28;20092;-69
2024/01/06 00:50:43;;;;;;;22.13;12.77;;;;;;;;;;4976973;28;20030;-70
2024/01/06 00:53:08;;;;;;;18.90;12.02;;;;;;;;;;4978546;28;20600;-69
2024/01/06 00:55:33;;;;;;;19.23;11.77;;;;;;;;;;4976222;28;20194;-69
2024/01/06 00:57:59;;;;;;;18.75;12.32;;;;;;;;;;4978630;28;20056;-68
2024/01/06 01:00:25;;;;;;;21.55;12.55;;;;;;;;;;4977724;28;20089;-69
2024/01/06 01:02:51;;;;;;;22.23;13.45;;;;;;;;;;4978737;28;20574;-70
2024/01/06 01:05:16;;;;;;;24.02;14.40;;;;;;;;;;4977989;28;20046;-72
2024/01/06 01:07:41;;;;;;;19.95;12.73;;;;;;;;;;4977537;28;20054;-72
2024/01/06 01:10:08;;;;;;;19.30;12.13;;;;;;;;;;4978109;28;20077;-71
2024/01/06 01:12:34;;;;;;;23.88;13.05;;;;;;;;;;4960162;28;20082;-70
2024/01/06 01:14:59;;;;;;;20.67;13.20;;;;;;;;;;4978291;28;20510;-69
2024/01/06 01:17:24;;;;;;;18.77;11.90;;;;;;;;;;4975512;28;20100;-70
2024/01/06 01:19:50;;;;;;;21.90;12.52;;;;;;;;;;4978183;28;20046;-69
2024/01/06 01:22:15;;;;;;;15.82;10.95;;;;;;;;;;4977311;28;20045;-70
2024/01/06 01:24:41;;;;;;;18.95;12.23;;;;;;;;;;4975928;28;20061;-70
2024/01/06 01:27:07;;;;;;;24.45;14.02;;;;;;;;;;4977467;28;20046;-70
2024/01/06 01:29:32;;;;;;;20.67;13.55;;;;;;;;;;4975580;28;20049;-69
2024/01/06 01:31:57;;;;;;;26.35;15.23;;;;;;;;;;4977037;28;20621;-70
2024/01/06 01:34:23;;;;;;;26.20;14.70;;;;;;;;;;4975097;28;20084;-72
2024/01/06 01:36:48;;;;;;;24.30;14.43;;;;;;;;;;4978224;28;20160;-69
2024/01/06 01:39:14;;;;;;;23.90;14.13;;;;;;;;;;4977293;28;20089;-68
2024/01/06 01:41:40;;;;;;;24.45;13.98;;;;;;;;;;4985847;28;20046;-69
2024/01/06 01:44:05;;;;;;;25.58;14.48;;;;;;;;;;4988750;28;20072;-71
2024/01/06 01:46:31;;;;;;;21.05;13.43;;;;;;;;;;4981737;28;20050;-72
2024/01/06 01:48:57;;;;;;;20.50;12.57;;;;;;;;;;4983296;28;20567;-71
2024/01/06 01:51:26;;;;;;;19.33;12.75;;;;;;;;;;4977680;28;20042;-69
2024/01/06 01:53:52;;;;;;;17.27;10.68;;;;;;;;;;4991846;28;20030;-71
2024/01/06 01:56:19;;;;;;;18.23;10.25;;;;;;;;;;4977642;28;20490;-69
2024/01/06 01:58:44;;;;;;;16.95;8.70;;;;;;;;;;4977477;28;20042;-69
2024/01/06 02:01:10;;;;;;;14.45;8.90;;;;;;;;;;4977995;28;20054;-69
2024/01/06 02:03:35;;;;;;;13.13;7.72;;;;;;;;;;4976149;28;20050;-69
2024/01/06 02:06:01;;;;;;;10.07;6.53;;;;;;;;;;4977291;28;20085;-72
2024/01/06 02:08:27;;;;;;;10.25;6.53;;;;;;;;;;4976354;28;20042;-72
2024/01/06 02:10:54;;;;;;;7.40;5.38;;;;;;;;;;4974307;28;20116;-68
2024/01/06 02:13:20;;;;;;;8.98;5.90;;;;;;;;;;4976894;28;20055;-72
2024/01/06 02:15:45;;;;;;;8.98;5.53;;;;;;;;;;4976141;28;20047;-68
2024/01/06 02:18:10;;;;;;;6.00;3.72;;;;;;;;;;4975117;28;20399;-72
2024/01/06 02:20:37;;;;;;;6.60;4.32;;;;;;;;;;4976838;28;20085;-70
2024/01/06 02:23:02;;;;;;;5.70;4.22;;;;;;;;;;4976209;28;20196;-69
2024/01/06 02:25:28;;;;;;;7.40;4.47;;;;;;;;;;4975323;28;20050;-69
2024/01/06 02:27:54;;;;;;;4.22;3.50;;;;;;;;;;4974805;28;20066;-69
2024/01/06 02:30:19;;;;;;;4.95;3.67;;;;;;;;;;4975863;28;20085;-69
2024/01/06 02:32:45;;;;;;;3.33;2.97;;;;;;;;;;4976453;28;20113;-69
2024/01/06 02:35:10;;;;;;;6.53;3.10;;;;;;;;;;4991287;28;20121;-69
2024/01/06 02:37:35;;;;;;;4.15;2.85;;;;;;;;;;4975438;28;20123;-71
2024/01/06 02:40:01;;;;;;;6.15;3.15;;;;;;;;;;4976826;28;20137;-72
2024/01/06 02:42:26;;;;;;;3.90;3.35;;;;;;;;;;4974970;28;20092;-68
2024/01/06 02:44:52;;;;;;;4.68;2.88;;;;;;;;;;4978175;28;20034;-69
2024/01/06 02:47:17;;;;;;;3.55;3.05;;;;;;;;;;4980908;28;20738;-66
2024/01/06 02:49:43;;;;;;;5.53;2.85;;;;;;;;;;4978821;28;20054;-68
2024/01/06 02:52:08;;;;;;;3.38;2.65;;;;;;;;;;4980491;28;20754;-66
2024/01/06 02:54:33;;;;;;;4.13;3.33;;;;;;;;;;4980632;28;20053;-67
2024/01/06 02:56:59;;;;;;;4.50;2.97;;;;;;;;;;4979414;28;20078;-68
2024/01/06 02:59:24;;;;;;;5.07;3.05;;;;;;;;;;4980047;28;20042;-66
2024/01/06 03:01:49;;;;;;;3.88;3.03;;;;;;;;;;4979884;28;20042;-67
2024/01/06 03:04:15;;;;;;;4.30;3.47;;;;;;;;;;4979890;28;20046;-71
2024/01/06 03:06:40;;;;;;;6.05;3.53;;;;;;;;;;4979969;28;20523;-67
2024/01/06 03:09:05;;;;;;;7.63;4.05;;;;;;;;;;4980775;28;20983;-68
2024/01/06 03:11:31;;;;;;;5.85;4.20;;;;;;;;;;4978136;28;20108;-67
2024/01/06 03:13:56;;;;;;;5.88;4.35;;;;;;;;;;4979424;28;20042;-71
2024/01/06 03:16:21;;;;;;;7.15;5.18;;;;;;;;;;4978960;28;20048;-71
2024/01/06 03:18:47;;;;;;;10.07;4.93;;;;;;;;;;4978806;28;20137;-67
2024/01/06 03:21:19;;;;;;;7.50;5.07;;;;;;;;;;4980332;28;20133;-70
2024/01/06 03:23:45;;;;;;;6.07;4.25;;;;;;;;;;4977836;28;20099;-67
2024/01/06 03:26:10;;;;;;;5.97;3.80;;;;;;;;;;4979516;28;20140;-69
2024/01/06 03:28:36;;;;;;;5.20;4.13;;;;;;;;;;4978414;28;20050;-66
2024/01/06 03:31:01;;;;;;;5.40;3.67;;;;;;;;;;4979743;28;20042;-70
2024/01/06 03:33:26;;;;;;;6.70;3.83;;;;;;;;;;4979512;28;20043;-67
2024/01/06 03:35:52;;;;;;;5.88;3.78;;;;;;;;;;4978397;28;20050;-70
2024/01/06 03:38:17;;;;;;;5.28;3.97;;;;;;;;;;4962611;28;20046;-66
2024/01/06 03:40:42;;;;;;;5.80;3.92;;;;;;;;;;4978537;28;20046;-69
2024/01/06 03:43:08;;;;;;;4.45;3.50;;;;;;;;;;4979506;28;20539;-67
2024/01/06 03:45:33;;;;;;;4.18;3.00;;;;;;;;;;4978364;28;20945;-69
2024/01/06 03:47:58;;;;;;;3.15;2.67;;;;;;;;;;4979047;28;20133;-67
2024/01/06 03:50:24;;;;;;;4.82;3.13;;;;;;;;;;4979179;28;20938;-67
2024/01/06 03:52:49;;;;;;;3.75;2.78;;;;;;;;;;4978006;28;20057;-67
2024/01/06 03:55:16;;;;;;;3.22;2.50;;;;;;;;;;4978865;28;20045;-68
2024/01/06 03:57:41;;;;;;;3.55;2.85;;;;;;;;;;4975721;28;20085;-68
2024/01/06 04:00:08;;;;;;;2.90;2.47;;;;;;;;;;4978996;28;20038;-70
2024/01/06 04:02:33;;;;;;;4.10;2.53;;;;;;;;;;4978463;28;20828;-70
2024/01/06 04:04:59;;;;;;;3.13;2.35;;;;;;;;;;4978893;28;20040;-68
2024/01/06 04:07:24;;;;;;;2.75;2.47;;;;;;;;;;4978376;28;20408;-70
2024/01/06 04:09:49;;;;;;;4.18;2.60;;;;;;;;;;4977387;28;20057;-67
2024/01/06 04:12:15;;;;;;;4.03;2.95;;;;;;;;;;4978978;28;20048;-69
2024/01/06 04:14:40;;;;;;;3.83;2.70;;;;;;;;;;4977556;28;20982;-69
2024/01/06 04:17:05;;;;;;;3.17;2.47;;;;;;;;;;4978339;28;20054;-69
2024/01/06 04:19:31;;;;;;;2.28;2.08;;;;;;;;;;4976613;28;20057;-67
2024/01/06 04:21:56;;;;;;;2.13;1.80;;;;;;;;;;4978221;28;20042;-70
2024/01/06 04:24:22;;;;;;;2.67;2.20;;;;;;;;;;4961855;28;21320;-67
2024/01/06 04:26:47;;;;;;;2.78;1.77;;;;;;;;;;4977194;28;20217;-69
2024/01/06 04:29:13;;;;;;;1.63;1.52;;;;;;;;;;4974877;28;20046;-67
2024/01/06 04:31:39;;;;;;;1.80;1.70;;;;;;;;;;4974109;28;20112;-69
2024/01/06 04:34:04;;;;;;;2.15;1.95;;;;;;;;;;4978524;28;20042;-67
2024/01/06 04:36:30;;;;;;;1.35;1.25;;;;;;;;;;4978407;28;20077;-67
2024/01/06 04:38:55;;;;;;;1.35;1.25;;;;;;;;;;4977553;28;20038;-70
2024/01/06 04:41:21;;;;;;;1.40;1.30;;;;;;;;;;4977384;28;20104;-67
2024/01/06 04:43:47;;;;;;;1.38;1.23;;;;;;;;;;4977317;28;20416;-69
2024/01/06 04:46:12;;;;;;;1.00;1.00;;;;;;;;;;4978543;28;20521;-67
2024/01/06 04:48:40;;;;;;;0.85;0.85;;;;;;;;;;4977570;28;20511;-68
2024/01/06 04:51:09;;;;;;;1.15;1.08;;;;;;;;;;4977548;28;20041;-67
2024/01/06 04:53:35;;;;;;;1.77;0.90;;;;;;;;;;4976931;28;20046;-69
2024/01/06 04:56:00;;;;;;;1.20;1.10;;;;;;;;;;4977986;28;20049;-67
2024/01/06 04:58:26;;;;;;;1.05;1.05;;;;;;;;;;4978372;28;20054;-69
2024/01/06 05:00:52;;;;;;;2.75;1.05;;;;;;;;;;4977168;28;20050;-67
2024/01/06 05:03:18;;;;;;;1.10;1.08;;;;;;;;;;4977631;28;20057;-68
2024/01/06 05:05:43;;;;;;;1.25;1.17;;;;;;;;;;4976565;28;20050;-68
2024/01/06 05:08:08;;;;;;;1.17;1.08;;;;;;;;;;4976905;28;20124;-68
2024/01/06 05:10:34;;;;;;;1.38;1.27;;;;;;;;;;4978682;28;20050;-67
2024/01/06 05:12:59;;;;;;;1.17;1.00;;;;;;;;;;4977358;28;20034;-69
2024/01/06 05:15:25;;;;;;;4.53;1.30;;;;;;;;;;4976062;28;20073;-68
2024/01/06 05:17:50;;;;;;;1.50;1.02;;;;;;;;;;4977559;28;20046;-70
2024/01/06 05:20:16;;;;;;;1.10;1.00;;;;;;;;;;4977877;28;20042;-67
2024/01/06 05:22:41;;;;;;;0.90;0.90;;;;;;;;;;4977590;28;20050;-69
2024/01/06 05:25:07;;;;;;;0.90;0.90;;;;;;;;;;4977118;28;20050;-70
2024/01/06 05:27:33;;;;;;;1.13;1.08;;;;;;;;;;4975543;28;20058;-70
2024/01/06 05:29:58;;;;;;;1.48;1.38;;;;;;;;;;4977457;28;20066;-68
2024/01/06 05:32:23;;;;;;;1.67;1.30;;;;;;;;;;4977895;28;20073;-70
2024/01/06 05:34:49;;;;;;;1.50;1.40;;;;;;;;;;4976904;28;20042;-68
2024/01/06 05:37:14;;;;;;;1.77;1.63;;;;;;;;;;4977170;28;20046;-67
2024/01/06 05:39:40;;;;;;;2.58;1.40;;;;;;;;;;4976513;28;20057;-68
2024/01/06 05:42:06;;;;;;;1.48;1.38;;;;;;;;;;4977776;28;20046;-66
2024/01/06 05:44:34;;;;;;;1.40;1.30;;;;;;;;;;4977186;28;20050;-67
2024/01/06 05:47:00;;;;;;;2.47;1.60;;;;;;;;;;4974988;28;20797;-67
2024/01/06 05:49:25;;;;;;;2.20;1.70;;;;;;;;;;4975644;28;20129;-70
2024/01/06 05:51:50;;;;;;;1.80;1.70;;;;;;;;;;4977037;28;20057;-67
2024/01/06 05:54:16;;;;;;;1.50;1.40;;;;;;;;;;4976731;28;20061;-70
2024/01/06 05:56:41;;;;;;;2.60;1.60;;;;;;;;;;4975339;28;20140;-67
2024/01/06 05:59:07;;;;;;;2.55;1.40;;;;;;;;;;4976340;28;20053;-67
2024/01/06 06:01:32;;;;;;;4.47;1.38;;;;;;;;;;4976686;28;20097;-67
2024/01/06 06:03:57;;;;;;;1.50;1.40;;;;;;;;;;4976388;28;20050;-68
2024/01/06 06:06:23;;;;;;;1.40;1.20;;;;;;;;;;4976721;28;20042;-70
2024/01/06 06:08:48;;;;;;;1.60;1.42;;;;;;;;;;4976016;28;20069;-66
2024/01/06 06:11:14;;;;;;;1.73;1.10;;;;;;;;;;4975314;28;20086;-68
2024/01/06 06:13:40;;;;;;;1.42;1.20;;;;;;;;;;4975480;28;20378;-70
2024/01/06 06:16:07;;;;;;;2.00;1.15;;;;;;;;;;4977070;28;20050;-68
2024/01/06 06:18:32;;;;;;;1.65;1.45;;;;;;;;;;4976141;28;20154;-68
2024/01/06 06:20:59;;;;;;;1.85;1.10;;;;;;;;;;4975557;28;20137;-68
2024/01/06 06:23:24;;;;;;;0.88;0.88;;;;;;;;;;4977209;28;20120;-67
2024/01/06 06:25:50;;;;;;;1.15;1.00;;;;;;;;;;4975858;28;20053;-68
2024/01/06 06:28:15;;;;;;;0.90;0.90;;;;;;;;;;4977104;28;20046;-67
2024/01/06 06:30:41;;;;;;;0.93;0.93;;;;;;;;;;4973146;28;20057;-68
2024/01/06 06:33:06;;;;;;;1.00;1.00;;;;;;;;;;4975973;28;20516;-67
2024/01/06 06:35:31;;;;;;;1.20;1.10;;;;;;;;;;4976659;28;20054;-67
2024/01/06 06:37:57;;;;;;;1.75;1.10;;;;;;;;;;4974540;28;20050;-68
2024/01/06 06:40:23;;;;;;;1.00;1.00;;;;;;;;;;4976532;28;20049;-67
2024/01/06 06:42:48;;;;;;;1.20;1.10;;;;;;;;;;4974569;28;20600;-68
2024/01/06 06:45:14;;;;;;;2.20;0.93;;;;;;;;;;4975404;28;20085;-67
2024/01/06 06:47:39;;;;;;;1.25;1.10;;;;;;;;;;4976395;28;20057;-67
2024/01/06 06:50:05;;;;;;;1.27;1.17;;;;;;;;;;4974911;28;20049;-69
2024/01/06 06:52:30;;;;;;;0.95;0.95;;;;;;;;;;4977168;28;20086;-68
2024/01/06 06:54:56;;;;;;;1.17;1.10;;;;;;;;;;4975690;28;20096;-67
2024/01/06 06:57:21;;;;;;;1.83;0.95;;;;;;;;;;4975589;28;20117;-68
2024/01/06 06:59:47;;;;;;;1.50;1.38;;;;;;;;;;4974742;28;20058;-68
2024/01/06 07:02:12;;;;;;;1.00;1.00;;;;;;;;;;4976394;28;20038;-67
2024/01/06 07:04:37;;;;;;;0.70;0.70;;;;;;;;;;4958303;28;20046;-68
2024/01/06 07:07:03;;;;;;;0.65;0.65;;;;;;;;;;4976031;28;20133;-67
2024/01/06 07:09:28;;;;;;;0.75;0.75;;;;;;;;;;4975207;28;20050;-67
2024/01/06 07:11:54;;;;;;;1.35;0.80;;;;;;;;;;4975887;28;20184;-68
2024/01/06 07:14:19;;;;;;;1.33;1.23;;;;;;;;;;4976630;28;20042;-68
2024/01/06 07:16:44;;;;;;;0.93;0.93;;;;;;;;;;4975567;28;20411;-69
2024/01/06 07:19:10;;;;;;;1.05;0.82;;;;;;;;;;4958632;28;20042;-68
2024/01/06 07:21:37;;;;;;;0.80;0.80;;;;;;;;;;4976161;28;20042;-67
2024/01/06 07:24:02;;;;;;;0.85;0.77;;;;;;;;;;4974837;28;20674;-67
2024/01/06 07:26:28;;;;;;;1.00;0.90;;;;;;;;;;4976189;28;20058;-68
2024/01/06 07:28:53;;;;;;;0.80;0.80;;;;;;;;;;4974274;28;20046;-68
2024/01/06 07:31:18;;;;;;;4.32;1.52;;;;;;;;;;4977613;28;20132;-66
2024/01/06 07:33:44;;;;;;;1.10;1.10;;;;;;;;;;4978697;28;20088;-67
2024/01/06 07:36:09;;;;;;;4.07;1.33;;;;;;;;;;4978286;28;20049;-69
2024/01/06 07:38:34;;;;;;;0.95;0.95;;;;;;;;;;4978176;28;20075;-68
2024/01/06 07:41:00;;;;;;;1.27;1.17;;;;;;;;;;4979011;28;20050;-68
2024/01/06 07:43:25;;;;;;;1.77;1.40;;;;;;;;;;4979592;28;20169;-69
2024/01/06 07:45:52;;;;;;;1.17;1.17;;;;;;;;;;4979283;28;20053;-68
2024/01/06 07:48:17;;;;;;;1.27;1.17;;;;;;;;;;4978937;28;20050;-67
2024/01/06 07:50:43;;;;;;;1.38;1.27;;;;;;;;;;4980163;28;20053;-69
2024/01/06 07:53:08;;;;;;;1.90;1.67;;;;;;;;;;4979561;28;20046;-66
2024/01/06 07:55:34;;;;;;;1.75;1.65;;;;;;;;;;4978774;28;20602;-68
2024/01/06 07:57:59;;;;;;;2.97;1.63;;;;;;;;;;4979376;28;20056;-67
2024/01/06 08:00:25;;;;;;;1.50;1.40;;;;;;;;;;4979107;28;20404;-69
2024/01/06 08:02:50;;;;;;;2.17;1.98;;;;;;;;;;4978074;28;20049;-67
2024/01/06 08:05:16;;;;;;;1.83;1.73;;;;;;;;;;4980222;28;20050;-67
2024/01/06 08:07:41;;;;;;;2.28;1.70;;;;;;;;;;4978969;28;20046;-68
2024/01/06 08:10:08;;;;;;;2.00;1.90;;;;;;;;;;4978653;28;20050;-71
2024/01/06 08:12:34;;;;;;;1.85;1.75;;;;;;;;;;4976621;28;20136;-71
2024/01/06 08:14:59;;;;;;;3.58;2.30;;;;;;;;;;4977749;28;20600;-70
2024/01/06 08:17:25;;;;;;;2.20;2.00;;;;;;;;;;4978395;28;20042;-70
2024/01/06 08:19:50;;;;;;;1.90;1.75;;;;;;;;;;4978283;28;20042;-70
2024/01/06 08:22:15;;;;;;;3.78;2.13;;;;;;;;;;4978555;28;20497;-69
2024/01/06 08:24:41;;;;;;;2.25;2.05;;;;;;;;;;4977391;28;20042;-70
2024/01/06 08:27:06;;;;;;;3.63;2.17;;;;;;;;;;4977200;28;20523;-70
2024/01/06 08:29:32;;;;;;;3.25;2.33;;;;;;;;;;4978038;28;20046;-69
2024/01/06 08:31:57;;;;;;;4.93;3.20;;;;;;;;;;4976259;28;20399;-69
2024/01/06 08:34:22;;;;;;;8.35;3.03;;;;;;;;;;4976183;28;20209;-69
2024/01/06 08:36:48;;;;;;;3.35;2.88;;;;;;;;;;4978578;28;20509;-70
2024/01/06 08:39:13;;;;;;;5.22;3.05;;;;;;;;;;4977648;28;20042;-68
2024/01/06 08:41:39;;;;;;;4.75;2.70;;;;;;;;;;4976578;28;20042;-69
2024/01/06 08:44:04;;;;;;;4.25;3.08;;;;;;;;;;4976278;28;20042;-69
2024/01/06 08:46:30;;;;;;;5.13;3.92;;;;;;;;;;4977810;28;20132;-70
2024/01/06 08:48:56;;;;;;;4.15;2.60;;;;;;;;;;4976414;28;20073;-68
2024/01/06 08:51:22;;;;;;;3.67;2.35;;;;;;;;;;4977656;28;20096;-68
2024/01/06 08:53:48;;;;;;;3.17;2.50;;;;;;;;;;4980099;28;20121;-68
2024/01/06 08:56:13;;;;;;;3.25;2.30;;;;;;;;;;4976263;28;20141;-68
2024/01/06 08:58:38;;;;;;;3.88;2.63;;;;;;;;;;4971934;28;20056;-68
2024/01/06 09:01:04;;;;;;;5.68;2.63;;;;;;;;;;4973806;28;20041;-69
2024/01/06 09:03:29;;;;;;;2.92;2.40;;;;;;;;;;4971768;28;21130;-68
2024/01/06 09:05:56;;;;;;;2.38;2.03;;;;;;;;;;4972256;28;20041;-69
2024/01/06 09:08:23;;;;;;;3.88;2.78;;;;;;;;;;4974233;28;20038;-70
2024/01/06 09:10:51;;;;;;;4.60;2.63;;;;;;;;;;4973830;28;20069;-72
2024/01/06 09:13:17;;;;;;;2.20;1.90;;;;;;;;;;4974370;28;20077;-68
2024/01/06 09:15:42;;;;;;;2.10;1.88;;;;;;;;;;4972321;28;20082;-71
2024/01/06 09:18:09;;;;;;;4.72;1.98;;;;;;;;;;4973236;28;20051;-69
2024/01/06 09:20:34;;;;;;;5.75;2.50;;;;;;;;;;4974864;28;20073;-68
2024/01/06 09:22:59;;;;;;;1.70;1.60;;;;;;;;;;4971735;28;20269;-70
2024/01/06 09:25:25;;;;;;;2.13;1.92;;;;;;;;;;4973742;28;20538;-70
2024/01/06 09:27:51;;;;;;;3.95;2.35;;;;;;;;;;4972989;28;20050;-70
2024/01/06 09:30:18;;;;;;;2.65;1.67;;;;;;;;;;4972714;28;20128;-71
2024/01/06 09:32:43;;;;;;;4.25;1.65;;;;;;;;;;4974830;28;20038;-72
2024/01/06 09:35:08;;;;;;;4.03;2.22;;;;;;;;;;4973419;28;20061;-72
2024/01/06 09:37:34;;;;;;;3.15;2.30;;;;;;;;;;4974395;28;20058;-68
2024/01/06 09:39:59;;;;;;;4.10;2.75;;;;;;;;;;4971791;28;20058;-71
2024/01/06 09:42:25;;;;;;;5.65;2.92;;;;;;;;;;4975377;28;20569;-72
2024/01/06 09:44:50;;;;;;;4.07;2.75;;;;;;;;;;4971701;28;20053;-71
2024/01/06 09:47:18;;;;;;;3.63;3.33;;;;;;;;;;4973710;28;20050;-68
2024/01/06 09:49:49;;;;;;;3.20;2.90;;;;;;;;;;4973235;28;20042;-71
2024/01/06 09:52:18;;;;;;;4.82;3.00;;;;;;;;;;4971956;28;20081;-70
2024/01/06 09:54:51;;;;;;;4.88;2.72;;;;;;;;;;4973462;28;20038;-72
2024/01/06 09:57:16;;;;;;;4.82;1.92;;;;;;;;;;4971856;28;20112;-70
2024/01/06 09:59:44;;;;;;;2.35;2.15;;;;;;;;;;4970371;28;20491;-73
2024/01/06 10:02:14;;;;;;;2.53;1.77;;;;;;;;;;4972894;28;20411;-70
2024/01/06 10:04:39;;;;;;;2.28;1.90;;;;;;;;;;4970496;28;20062;-69
2024/01/06 10:07:05;;;;;;;5.78;2.05;;;;;;;;;;4974640;28;20057;-69
2024/01/06 10:09:30;;;;;;;4.97;2.10;;;;;;;;;;4975269;28;20034;-70
2024/01/06 10:11:59;;;;;;;6.03;2.38;;;;;;;;;;4970904;28;20073;-71
2024/01/06 10:14:25;;;;;;;2.85;2.13;;;;;;;;;;4973876;28;20132;-70
2024/01/06 10:16:54;;;;;;;2.78;2.50;;;;;;;;;;4969602;28;20046;-71
2024/01/06 10:19:19;;;;;;;3.53;2.53;;;;;;;;;;4971500;28;20046;-69
2024/01/06 10:21:45;;;;;;;2.00;1.90;;;;;;;;;;4971830;28;20069;-70
2024/01/06 10:24:10;;;;;;;2.42;1.80;;;;;;;;;;4972830;28;20050;-70
2024/01/06 10:26:36;;;;;;;1.98;1.80;;;;;;;;;;4971022;28;20077;-73
2024/01/06 10:29:02;;;;;;;2.53;1.92;;;;;;;;;;4973765;28;20039;-71
2024/01/06 10:31:27;;;;;;;2.35;1.90;;;;;;;;;;4974417;28;20046;-72
2024/01/06 10:33:54;;;;;;;2.38;1.90;;;;;;;;;;4972808;28;20051;-71
2024/01/06 10:36:19;;;;;;;4.30;2.08;;;;;;;;;;4972669;28;20050;-73
2024/01/06 10:38:45;;;;;;;3.17;1.80;;;;;;;;;;4973257;28;20045;-71
2024/01/06 10:41:11;;;;;;;4.05;1.73;;;;;;;;;;4973593;28;20042;-71
2024/01/06 10:43:41;;;;;;;3.00;1.90;;;;;;;;;;4973663;28;20055;-71
2024/01/06 10:46:10;;;;;;;2.05;1.85;;;;;;;;;;4973899;28;20387;-71
2024/01/06 10:48:42;;;;;;;4.00;2.15;;;;;;;;;;4970162;28;20797;-72
2024/01/06 10:51:12;;;;;;;3.88;2.35;;;;;;;;;;4973926;28;20050;-71
2024/01/06 10:53:39;;;;;;;2.53;1.77;;;;;;;;;;4972227;28;20046;-68
2024/01/06 10:56:07;;;;;;;2.05;1.70;;;;;;;;;;4970563;28;20500;-69
2024/01/06 10:58:37;;;;;;;2.97;2.30;;;;;;;;;;4974045;28;20046;-66
2024/01/06 11:01:03;;;;;;;3.88;2.45;;;;;;;;;;4972742;28;20046;-69
2024/01/06 11:03:29;;;;;;;4.38;2.20;;;;;;;;;;4973163;28;20043;-69
2024/01/06 11:05:54;;;;;;;2.83;2.05;;;;;;;;;;4975686;28;20454;-71
2024/01/06 11:08:21;;;;;;;7.32;2.63;;;;;;;;;;4978025;28;20042;-72
2024/01/06 11:10:47;;;;;;;11.13;3.22;;;;;;;;;;4979230;28;20129;-72
2024/01/06 11:13:17;;;;;;;5.38;3.20;;;;;;;;;;4978583;28;20054;-71
2024/01/06 11:15:45;;;;;;;6.55;3.38;;;;;;;;;;4978887;28;20046;-69
2024/01/06 11:18:40;;;;;;;5.63;2.88;;;;;;;;;;4974070;28;20046;-71
2024/01/06 11:21:17;;;;;;;5.47;2.28;;;;;;;;;;4976431;28;20082;-70
2024/01/06 11:23:42;;;;;;;2.17;1.80;;;;;;;;;;4976530;28;20086;-69
2024/01/06 11:26:08;;;;;;;2.78;2.13;;;;;;;;;;4979065;28;20148;-69
2024/01/06 11:28:47;;;;;;;4.47;1.83;;;;;;;;;;4978239;28;20053;-69
2024/01/06 11:31:13;;;;;;;3.85;2.10;;;;;;;;;;4979163;28;20598;-70
2024/01/06 11:33:42;;;;;;;2.70;1.85;;;;;;;;;;4978326;28;20034;-69
2024/01/06 11:36:09;;;;;;;5.40;1.92;;;;;;;;;;4978222;28;20050;-73
2024/01/06 11:38:38;;;;;;;2.53;2.25;;;;;;;;;;4978304;28;20049;-71
2024/01/06 11:41:03;;;;;;;9.75;2.60;;;;;;;;;;4978306;28;20482;-69
2024/01/06 11:43:30;;;;;;;4.32;2.22;;;;;;;;;;4974501;28;20592;-71
2024/01/06 11:45:59;;;;;;;2.88;2.25;;;;;;;;;;4977393;28;20093;-70
2024/01/06 11:48:28;;;;;;;2.67;2.30;;;;;;;;;;4977924;28;20046;-71
2024/01/06 11:50:53;;;;;;;3.80;2.28;;;;;;;;;;4978319;28;20047;-70
2024/01/06 11:53:20;;;;;;;2.45;1.83;;;;;;;;;;4978220;28;20042;-72
2024/01/06 11:55:45;;;;;;;4.78;2.72;;;;;;;;;;4976672;28;20034;-72
2024/01/06 11:58:10;;;;;;;4.82;2.47;;;;;;;;;;4977695;28;21032;-70
2024/01/06 12:00:38;;;;;;;7.97;2.80;;;;;;;;;;4976562;28;20046;-72
2024/01/06 12:03:04;;;;;;;7.90;2.55;;;;;;;;;;4975851;28;20134;-73
2024/01/06 12:05:30;;;;;;;3.58;2.40;;;;;;;;;;4977337;28;20053;-69
2024/01/06 12:08:00;;;;;;;5.40;3.00;;;;;;;;;;4978160;28;20070;-69
2024/01/06 12:10:27;;;;;;;6.63;2.22;;;;;;;;;;4976209;28;20038;-70
2024/01/06 12:13:02;;;;;;;2.38;2.10;;;;;;;;;;4976971;28;20054;-69
2024/01/06 12:15:30;;;;;;;9.40;3.20;;;;;;;;;;4977996;28;20148;-69
2024/01/06 12:17:56;;;;;;;2.42;1.92;;;;;;;;;;4973276;28;20622;-69
2024/01/06 12:20:23;;;;;;;2.33;2.13;;;;;;;;;;4972587;28;20137;-71
2024/01/06 12:22:51;;;;;;;6.40;2.92;;;;;;;;;;4976847;28;20034;-70
2024/01/06 12:25:16;;;;;;;7.47;2.75;;;;;;;;;;4976616;28;20069;-68
2024/01/06 12:27:43;;;;;;;8.45;2.88;;;;;;;;;;4974475;28;20042;-70
2024/01/06 12:30:15;;;;;;;5.75;2.60;;;;;;;;;;4957508;28;20062;-69
2024/01/06 12:32:41;;;;;;;9.50;2.83;;;;;;;;;;4976706;28;20034;-69
2024/01/06 12:35:07;;;;;;;7.05;3.42;;;;;;;;;;4973601;28;20053;-69
2024/01/06 12:37:32;;;;;;;5.72;3.85;;;;;;;;;;4974666;28;20066;-71
2024/01/06 12:39:57;;;;;;;6.95;2.90;;;;;;;;;;4977330;28;20077;-69
2024/01/06 12:42:23;;;;;;;6.50;3.15;;;;;;;;;;4977747;28;20503;-71
2024/01/06 12:44:49;;;;;;;3.85;3.20;;;;;;;;;;4976270;28;20069;-70
2024/01/06 12:47:14;;;;;;;4.00;2.15;;;;;;;;;;4974736;28;20145;-69
2024/01/06 12:49:40;;;;;;;5.38;2.42;;;;;;;;;;4977361;28;20407;-69
2024/01/06 12:52:05;;;;;;;31.40;16.02;;;;;;;;;;4977039;28;20046;-71
2024/01/06 12:54:31;;;;;;;9.70;6.25;;;;;;;;;;4974421;28;20050;-71
2024/01/06 12:56:56;;;;;;;5.25;4.00;;;;;;;;;;4975442;28;20069;-69
2024/01/06 12:59:22;;;;;;;4.90;3.60;;;;;;;;;;4977218;28;20065;-69
2024/01/06 13:01:49;;;;;;;6.63;3.28;;;;;;;;;;4976786;28;20046;-71
2024/01/06 13:04:14;;;;;;;3.35;3.05;;;;;;;;;;4975392;28;20050;-68
2024/01/06 13:06:40;;;;;;;3.60;2.92;;;;;;;;;;4976709;28;20038;-69
2024/01/06 13:09:06;;;;;;;3.72;3.10;;;;;;;;;;4973978;28;20046;-71
2024/01/06 13:11:34;;;;;;;5.40;3.72;;;;;;;;;;4975707;28;20112;-72
2024/01/06 13:14:00;;;;;;;3.10;2.50;;;;;;;;;;4975640;28;20053;-71
2024/01/06 13:16:25;;;;;;;3.42;2.83;;;;;;;;;;4975126;28;20415;-69
2024/01/06 13:18:51;;;;;;;4.13;2.83;;;;;;;;;;4976471;28;20041;-69
2024/01/06 13:21:17;;;;;;;3.30;2.17;;;;;;;;;;4975285;28;20105;-68
2024/01/06 13:23:42;;;;;;;7.53;3.97;;;;;;;;;;4975644;28;20045;-69
2024/01/06 13:26:09;;;;;;;7.03;2.78;;;;;;;;;;4977268;28;20062;-69
2024/01/06 13:28:34;;;;;;;7.00;4.22;;;;;;;;;;4975794;28;20439;-70
2024/01/06 13:31:00;;;;;;;4.38;2.85;;;;;;;;;;4973159;28;20156;-71
2024/01/06 13:33:26;;;;;;;4.13;3.55;;;;;;;;;;4989987;28;20097;-69
2024/01/06 13:35:51;;;;;;;4.38;3.80;;;;;;;;;;4974157;28;20053;-68
2024/01/06 13:38:16;;;;;;;3.30;3.00;;;;;;;;;;4976209;28;20054;-69
2024/01/06 13:40:42;;;;;;;7.20;3.00;;;;;;;;;;4975663;28;20050;-68
2024/01/06 13:43:09;;;;;;;5.78;3.60;;;;;;;;;;4976058;28;20595;-68
2024/01/06 13:45:35;;;;;;;6.55;3.10;;;;;;;;;;4975957;28;20044;-69
2024/01/06 13:48:02;;;;;;;5.07;3.47;;;;;;;;;;4976498;28;20046;-68
2024/01/06 13:50:27;;;;;;;8.27;4.30;;;;;;;;;;4976168;28;20046;-69
2024/01/06 13:52:54;;;;;;;4.38;3.42;;;;;;;;;;4975674;28;20049;-71
2024/01/06 13:55:19;;;;;;;10.55;4.03;;;;;;;;;;4974759;28;20038;-71
2024/01/06 13:57:45;;;;;;;4.70;3.90;;;;;;;;;;4974529;28;20109;-69
2024/01/06 14:00:14;;;;;;;7.40;4.07;;;;;;;;;;4975618;28;20050;-71
2024/01/06 14:02:39;;;;;;;5.57;3.92;;;;;;;;;;4976150;28;20482;-69
2024/01/06 14:05:08;;;;;;;7.13;3.35;;;;;;;;;;4976408;28;20859;-68
2024/01/06 14:07:34;;;;;;;5.60;3.83;;;;;;;;;;4988607;28;20423;-71
2024/01/06 14:10:00;;;;;;;7.85;4.25;;;;;;;;;;4974604;28;20053;-69
2024/01/06 14:12:26;;;;;;;7.93;4.63;;;;;;;;;;4975616;28;20042;-69
2024/01/06 14:14:51;;;;;;;5.72;3.80;;;;;;;;;;4974290;28;20064;-74
2024/01/06 14:17:16;;;;;;;8.95;4.07;;;;;;;;;;4973671;28;20052;-71
2024/01/06 14:19:42;;;;;;;4.18;3.78;;;;;;;;;;4975404;28;20042;-73
2024/01/06 14:22:07;;;;;;;4.47;3.10;;;;;;;;;;4976596;28;20533;-69
2024/01/06 14:24:33;;;;;;;4.43;3.55;;;;;;;;;;4975000;28;20046;-73
2024/01/06 14:26:58;;;;;;;8.43;5.60;;;;;;;;;;4976626;28;20046;-73
2024/01/06 14:29:24;;;;;;;8.32;4.82;;;;;;;;;;4976494;28;20480;-70
2024/01/06 14:31:49;;;;;;;8.73;5.00;;;;;;;;;;4976190;28;20062;-73
2024/01/06 14:34:15;;;;;;;9.00;5.80;;;;;;;;;;4975223;28;20060;-74